sensor_id;sensor_type;location;lat;lon;timestamp;temperature;humidity
32865;DHT22;19219;44.500;11.188;2022-12-18T00:01:15;8.60;99.90
32865;DHT22;19219;44.500;11.188;2022-12-18T00:03:41;8.60;99.90
32865;DHT22;19219;44.500;11.188;2022-12-18T00:06:08;8.60;99.90
32865;DHT22;19219;44.500;11.188;2022-12-18T00:08:34;8.60;99.90
32865;DHT22;19219;44.500;11.188;2022-12-18T00:11:04;8.60;99.90
32865;DHT22;19219;44.500;11.188;2022-12-18T00:13:30;8.60;99.90
32865;DHT22;19219;44.500;11.188;2022-12-18T00:16:00;8.50;99.90
32865;DHT22;19219;44.500;11.188;2022-12-18T00:18:26;8.40;99.90
32865;DHT22;19219;44.500;11.188;2022-12-18T00:20:52;8.40;99.90
32865;DHT22;19219;44.500;11.188;2022-12-18T00:23:17;8.40;99.90
32865;DHT22;19219;44.500;11.188;2022-12-18T00:25:43;8.40;99.90
32865;DHT22;19219;44.500;11.188;2022-12-18T00:28:09;8.30;99.90
32865;DHT22;19219;44.500;11.188;2022-12-18T00:30:34;8.30;99.90
32865;DHT22;19219;44.500;11.188;2022-12-18T00:33:00;8.30;99.90
32865;DHT22;19219;44.500;11.188;2022-12-18T00:35:25;8.20;99.90
32865;DHT22;19219;44.500;11.188;2022-12-18T00:37:51;8.20;99.90
32865;DHT22;19219;44.500;11.188;2022-12-18T00:40:17;8.30;99.90
32865;DHT22;19219;44.500;11.188;2022-12-18T00:42:42;8.30;99.90
32865;DHT22;19219;44.500;11.188;2022-12-18T00:45:23;8.30;99.90
32865;DHT22;19219;44.500;11.188;2022-12-18T00:47:49;8.20;99.90
32865;DHT22;19219;44.500;11.188;2022-12-18T00:50:15;8.30;99.90
32865;DHT22;19219;44.500;11.188;2022-12-18T00:52:41;8.20;99.90
32865;DHT22;19219;44.500;11.188;2022-12-18T00:55:08;8.20;99.90
32865;DHT22;19219;44.500;11.188;2022-12-18T00:57:34;8.20;99.90
32865;DHT22;19219;44.500;11.188;2022-12-18T00:59:59;8.10;99.90
32865;DHT22;19219;44.500;11.188;2022-12-18T01:02:25;8.00;99.90
32865;DHT22;19219;44.500;11.188;2022-12-18T01:04:51;8.00;99.90
32865;DHT22;19219;44.500;11.188;2022-12-18T01:07:16;8.10;99.90
32865;DHT22;19219;44.500;11.188;2022-12-18T01:09:42;8.00;99.90
32865;DHT22;19219;44.500;11.188;2022-12-18T01:12:08;8.00;99.90
32865;DHT22;19219;44.500;11.188;2022-12-18T01:14:33;7.90;99.90
32865;DHT22;19219;44.500;11.188;2022-12-18T01:16:59;7.80;99.90
32865;DHT22;19219;44.500;11.188;2022-12-18T01:19:25;7.70;99.90
32865;DHT22;19219;44.500;11.188;2022-12-18T01:21:50;7.60;99.90
32865;DHT22;19219;44.500;11.188;2022-12-18T01:24:16;7.60;99.90
32865;DHT22;19219;44.500;11.188;2022-12-18T01:26:42;7.50;99.90
32865;DHT22;19219;44.500;11.188;2022-12-18T01:29:07;7.40;99.90
32865;DHT22;19219;44.500;11.188;2022-12-18T01:31:33;7.40;99.90
32865;DHT22;19219;44.500;11.188;2022-12-18T01:34:04;7.30;99.90
32865;DHT22;19219;44.500;11.188;2022-12-18T01:36:31;7.20;99.90
32865;DHT22;19219;44.500;11.188;2022-12-18T01:38:59;7.10;99.90
32865;DHT22;19219;44.500;11.188;2022-12-18T01:41:27;7.00;99.90
32865;DHT22;19219;44.500;11.188;2022-12-18T01:47:00;6.90;99.90
32865;DHT22;19219;44.500;11.188;2022-12-18T01:49:26;6.70;99.90
32865;DHT22;19219;44.500;11.188;2022-12-18T01:51:52;6.50;99.90
32865;DHT22;19219;44.500;11.188;2022-12-18T01:54:17;6.40;99.90
32865;DHT22;19219;44.500;11.188;2022-12-18T01:56:43;6.30;99.90
32865;DHT22;19219;44.500;11.188;2022-12-18T01:59:10;6.30;99.90
32865;DHT22;19219;44.500;11.188;2022-12-18T02:01:37;6.20;99.90
32865;DHT22;19219;44.500;11.188;2022-12-18T02:04:22;6.10;99.90
32865;DHT22;19219;44.500;11.188;2022-12-18T02:09:45;5.80;99.90
32865;DHT22;19219;44.500;11.188;2022-12-18T02:12:18;5.70;99.90
32865;DHT22;19219;44.500;11.188;2022-12-18T02:17:22;5.50;99.90
32865;DHT22;19219;44.500;11.188;2022-12-18T02:27:49;5.30;99.90
32865;DHT22;19219;44.500;11.188;2022-12-18T02:30:16;5.20;99.90
32865;DHT22;19219;44.500;11.188;2022-12-18T02:32:48;5.10;99.90
32865;DHT22;19219;44.500;11.188;2022-12-18T02:35:20;5.00;99.90
32865;DHT22;19219;44.500;11.188;2022-12-18T02:37:48;5.00;99.90
32865;DHT22;19219;44.500;11.188;2022-12-18T02:40:15;5.00;99.90
32865;DHT22;19219;44.500;11.188;2022-12-18T02:42:42;4.90;99.90
32865;DHT22;19219;44.500;11.188;2022-12-18T02:45:08;4.90;99.90
32865;DHT22;19219;44.500;11.188;2022-12-18T02:47:38;4.80;99.90
32865;DHT22;19219;44.500;11.188;2022-12-18T02:50:26;4.70;99.90
32865;DHT22;19219;44.500;11.188;2022-12-18T02:53:43;4.60;99.90
32865;DHT22;19219;44.500;11.188;2022-12-18T03:01:49;4.70;99.90
32865;DHT22;19219;44.500;11.188;2022-12-18T03:04:38;4.70;99.90
32865;DHT22;19219;44.500;11.188;2022-12-18T03:07:10;4.70;99.90
32865;DHT22;19219;44.500;11.188;2022-12-18T03:09:42;4.80;99.90
32865;DHT22;19219;44.500;11.188;2022-12-18T03:12:41;4.90;99.90
32865;DHT22;19219;44.500;11.188;2022-12-18T03:15:10;4.90;99.90
32865;DHT22;19219;44.500;11.188;2022-12-18T03:17:42;5.00;99.90
32865;DHT22;19219;44.500;11.188;2022-12-18T03:20:18;5.10;99.90
32865;DHT22;19219;44.500;11.188;2022-12-18T03:22:51;5.10;99.90
32865;DHT22;19219;44.500;11.188;2022-12-18T03:25:19;5.10;99.90
32865;DHT22;19219;44.500;11.188;2022-12-18T03:27:52;5.20;99.90
32865;DHT22;19219;44.500;11.188;2022-12-18T03:30:19;5.20;99.90
32865;DHT22;19219;44.500;11.188;2022-12-18T03:35:55;5.30;99.90
32865;DHT22;19219;44.500;11.188;2022-12-18T03:38:21;5.50;99.90
32865;DHT22;19219;44.500;11.188;2022-12-18T03:41:45;5.50;99.90
32865;DHT22;19219;44.500;11.188;2022-12-18T03:46:58;5.50;99.90
32865;DHT22;19219;44.500;11.188;2022-12-18T03:52:09;5.70;99.90
32865;DHT22;19219;44.500;11.188;2022-12-18T03:54:35;5.70;99.90
32865;DHT22;19219;44.500;11.188;2022-12-18T03:57:09;5.80;99.90
32865;DHT22;19219;44.500;11.188;2022-12-18T03:59:37;5.90;99.90
32865;DHT22;19219;44.500;11.188;2022-12-18T04:02:04;5.90;99.90
32865;DHT22;19219;44.500;11.188;2022-12-18T04:04:32;5.90;99.90
32865;DHT22;19219;44.500;11.188;2022-12-18T04:06:59;5.90;99.90
32865;DHT22;19219;44.500;11.188;2022-12-18T04:09:26;5.90;99.90
32865;DHT22;19219;44.500;11.188;2022-12-18T04:11:52;6.00;99.90
32865;DHT22;19219;44.500;11.188;2022-12-18T04:14:18;6.00;99.90
32865;DHT22;19219;44.500;11.188;2022-12-18T04:16:44;6.00;99.90
32865;DHT22;19219;44.500;11.188;2022-12-18T04:19:10;6.00;99.90
32865;DHT22;19219;44.500;11.188;2022-12-18T04:21:35;6.10;99.90
32865;DHT22;19219;44.500;11.188;2022-12-18T04:24:01;6.10;99.90
32865;DHT22;19219;44.500;11.188;2022-12-18T04:26:27;6.10;99.90
32865;DHT22;19219;44.500;11.188;2022-12-18T04:28:52;6.20;99.90
32865;DHT22;19219;44.500;11.188;2022-12-18T04:31:18;6.20;99.90
32865;DHT22;19219;44.500;11.188;2022-12-18T04:33:44;6.30;99.90
32865;DHT22;19219;44.500;11.188;2022-12-18T04:36:09;6.30;99.90
32865;DHT22;19219;44.500;11.188;2022-12-18T04:38:35;6.30;99.90
32865;DHT22;19219;44.500;11.188;2022-12-18T04:41:01;6.30;99.90
32865;DHT22;19219;44.500;11.188;2022-12-18T04:43:26;6.30;99.90
32865;DHT22;19219;44.500;11.188;2022-12-18T04:45:52;6.30;99.90
32865;DHT22;19219;44.500;11.188;2022-12-18T04:48:18;6.40;99.90
32865;DHT22;19219;44.500;11.188;2022-12-18T04:50:46;6.40;99.90
32865;DHT22;19219;44.500;11.188;2022-12-18T04:53:12;6.40;99.90
32865;DHT22;19219;44.500;11.188;2022-12-18T04:55:38;6.40;99.90
32865;DHT22;19219;44.500;11.188;2022-12-18T04:58:03;6.40;99.90
32865;DHT22;19219;44.500;11.188;2022-12-18T05:00:29;6.40;99.90
32865;DHT22;19219;44.500;11.188;2022-12-18T05:02:55;6.40;99.90
32865;DHT22;19219;44.500;11.188;2022-12-18T05:05:20;6.40;99.90
32865;DHT22;19219;44.500;11.188;2022-12-18T05:07:46;6.30;99.90
32865;DHT22;19219;44.500;11.188;2022-12-18T05:10:11;6.40;99.90
32865;DHT22;19219;44.500;11.188;2022-12-18T05:12:37;6.50;99.90
32865;DHT22;19219;44.500;11.188;2022-12-18T05:15:23;6.50;99.90
32865;DHT22;19219;44.500;11.188;2022-12-18T05:17:49;6.40;99.90
32865;DHT22;19219;44.500;11.188;2022-12-18T05:20:14;6.50;99.90
32865;DHT22;19219;44.500;11.188;2022-12-18T05:22:40;6.40;99.90
32865;DHT22;19219;44.500;11.188;2022-12-18T05:25:06;6.40;99.90
32865;DHT22;19219;44.500;11.188;2022-12-18T05:27:32;6.40;99.90
32865;DHT22;19219;44.500;11.188;2022-12-18T05:29:57;6.40;99.90
32865;DHT22;19219;44.500;11.188;2022-12-18T05:32:23;6.40;99.90
32865;DHT22;19219;44.500;11.188;2022-12-18T05:34:49;6.40;99.90
32865;DHT22;19219;44.500;11.188;2022-12-18T05:37:14;6.50;99.90
32865;DHT22;19219;44.500;11.188;2022-12-18T05:39:40;6.50;99.90
32865;DHT22;19219;44.500;11.188;2022-12-18T05:42:05;6.50;99.90
32865;DHT22;19219;44.500;11.188;2022-12-18T05:44:31;6.60;99.90
32865;DHT22;19219;44.500;11.188;2022-12-18T05:46:57;6.60;99.90
32865;DHT22;19219;44.500;11.188;2022-12-18T05:49:22;6.70;99.90
32865;DHT22;19219;44.500;11.188;2022-12-18T05:51:48;6.70;99.90
32865;DHT22;19219;44.500;11.188;2022-12-18T05:54:14;6.70;99.90
32865;DHT22;19219;44.500;11.188;2022-12-18T05:56:39;6.70;99.90
32865;DHT22;19219;44.500;11.188;2022-12-18T05:59:05;6.70;99.90
32865;DHT22;19219;44.500;11.188;2022-12-18T06:01:31;6.70;99.90
32865;DHT22;19219;44.500;11.188;2022-12-18T06:03:56;6.70;99.90
32865;DHT22;19219;44.500;11.188;2022-12-18T06:06:24;6.70;99.90
32865;DHT22;19219;44.500;11.188;2022-12-18T06:08:51;6.70;99.90
32865;DHT22;19219;44.500;11.188;2022-12-18T06:11:19;6.70;99.90
32865;DHT22;19219;44.500;11.188;2022-12-18T06:13:46;6.70;99.90
32865;DHT22;19219;44.500;11.188;2022-12-18T06:16:12;6.70;99.90
32865;DHT22;19219;44.500;11.188;2022-12-18T06:18:39;6.70;99.90
32865;DHT22;19219;44.500;11.188;2022-12-18T06:21:05;6.70;99.90
32865;DHT22;19219;44.500;11.188;2022-12-18T06:23:30;6.70;99.90
32865;DHT22;19219;44.500;11.188;2022-12-18T06:25:56;6.70;99.90
32865;DHT22;19219;44.500;11.188;2022-12-18T06:28:22;6.70;99.90
32865;DHT22;19219;44.500;11.188;2022-12-18T06:30:48;6.80;99.90
32865;DHT22;19219;44.500;11.188;2022-12-18T06:33:14;6.80;99.90
32865;DHT22;19219;44.500;11.188;2022-12-18T06:35:40;6.70;99.90
32865;DHT22;19219;44.500;11.188;2022-12-18T06:38:06;6.70;99.90
32865;DHT22;19219;44.500;11.188;2022-12-18T06:40:32;6.80;99.90
32865;DHT22;19219;44.500;11.188;2022-12-18T06:42:57;6.70;99.90
32865;DHT22;19219;44.500;11.188;2022-12-18T06:45:23;6.70;99.90
32865;DHT22;19219;44.500;11.188;2022-12-18T06:47:49;6.80;99.90
32865;DHT22;19219;44.500;11.188;2022-12-18T06:50:15;6.70;99.90
32865;DHT22;19219;44.500;11.188;2022-12-18T06:52:41;6.80;99.90
32865;DHT22;19219;44.500;11.188;2022-12-18T06:55:10;6.80;99.90
32865;DHT22;19219;44.500;11.188;2022-12-18T06:57:36;6.70;99.90
32865;DHT22;19219;44.500;11.188;2022-12-18T07:00:05;6.70;99.90
32865;DHT22;19219;44.500;11.188;2022-12-18T07:02:31;6.70;99.90
32865;DHT22;19219;44.500;11.188;2022-12-18T07:04:57;6.80;99.90
32865;DHT22;19219;44.500;11.188;2022-12-18T07:07:23;6.70;99.90
32865;DHT22;19219;44.500;11.188;2022-12-18T07:09:51;6.80;99.90
32865;DHT22;19219;44.500;11.188;2022-12-18T07:12:17;6.80;99.90
32865;DHT22;19219;44.500;11.188;2022-12-18T07:14:43;6.90;99.90
32865;DHT22;19219;44.500;11.188;2022-12-18T07:17:08;7.00;99.90
32865;DHT22;19219;44.500;11.188;2022-12-18T07:19:34;7.10;99.90
32865;DHT22;19219;44.500;11.188;2022-12-18T07:22:00;7.20;99.90
32865;DHT22;19219;44.500;11.188;2022-12-18T07:24:26;7.20;99.90
32865;DHT22;19219;44.500;11.188;2022-12-18T07:26:52;7.20;99.90
32865;DHT22;19219;44.500;11.188;2022-12-18T07:29:18;7.20;99.90
32865;DHT22;19219;44.500;11.188;2022-12-18T07:31:44;7.30;99.90
32865;DHT22;19219;44.500;11.188;2022-12-18T07:34:13;7.30;99.90
32865;DHT22;19219;44.500;11.188;2022-12-18T07:36:40;7.40;99.90
32865;DHT22;19219;44.500;11.188;2022-12-18T07:39:06;7.60;99.90
32865;DHT22;19219;44.500;11.188;2022-12-18T07:41:32;7.60;99.90
32865;DHT22;19219;44.500;11.188;2022-12-18T07:43:58;7.70;99.90
32865;DHT22;19219;44.500;11.188;2022-12-18T07:46:24;7.70;99.90
32865;DHT22;19219;44.500;11.188;2022-12-18T07:48:49;7.70;99.90
32865;DHT22;19219;44.500;11.188;2022-12-18T07:51:15;7.70;99.90
32865;DHT22;19219;44.500;11.188;2022-12-18T07:53:41;7.90;99.90
32865;DHT22;19219;44.500;11.188;2022-12-18T07:56:09;7.90;99.90
32865;DHT22;19219;44.500;11.188;2022-12-18T07:58:36;8.00;99.90
32865;DHT22;19219;44.500;11.188;2022-12-18T08:01:07;8.10;99.90
32865;DHT22;19219;44.500;11.188;2022-12-18T08:03:33;8.20;99.90
32865;DHT22;19219;44.500;11.188;2022-12-18T08:06:03;8.10;99.90
32865;DHT22;19219;44.500;11.188;2022-12-18T08:08:30;8.00;99.90
32865;DHT22;19219;44.500;11.188;2022-12-18T08:10:56;8.00;99.90
32865;DHT22;19219;44.500;11.188;2022-12-18T08:13:22;8.00;99.90
32865;DHT22;19219;44.500;11.188;2022-12-18T08:15:59;8.10;99.90
32865;DHT22;19219;44.500;11.188;2022-12-18T08:18:25;8.20;99.90
32865;DHT22;19219;44.500;11.188;2022-12-18T08:20:51;8.20;99.90
32865;DHT22;19219;44.500;11.188;2022-12-18T08:23:17;8.30;99.90
32865;DHT22;19219;44.500;11.188;2022-12-18T08:25:42;8.50;99.90
32865;DHT22;19219;44.500;11.188;2022-12-18T08:28:09;8.90;99.90
32865;DHT22;19219;44.500;11.188;2022-12-18T08:30:35;10.10;99.90
32865;DHT22;19219;44.500;11.188;2022-12-18T08:33:01;12.10;99.90
32865;DHT22;19219;44.500;11.188;2022-12-18T08:35:27;13.80;99.90
32865;DHT22;19219;44.500;11.188;2022-12-18T08:37:53;14.40;99.90
32865;DHT22;19219;44.500;11.188;2022-12-18T08:40:19;15.20;99.90
32865;DHT22;19219;44.500;11.188;2022-12-18T08:42:45;16.30;99.90
32865;DHT22;19219;44.500;11.188;2022-12-18T08:45:29;17.70;99.90
32865;DHT22;19219;44.500;11.188;2022-12-18T08:47:54;18.90;99.20
32865;DHT22;19219;44.500;11.188;2022-12-18T08:50:20;19.70;95.20
32865;DHT22;19219;44.500;11.188;2022-12-18T08:52:46;20.20;92.30
32865;DHT22;19219;44.500;11.188;2022-12-18T08:55:12;20.90;90.30
32865;DHT22;19219;44.500;11.188;2022-12-18T08:57:37;20.30;83.40
32865;DHT22;19219;44.500;11.188;2022-12-18T09:00:04;20.50;82.50
32865;DHT22;19219;44.500;11.188;2022-12-18T09:02:30;20.70;81.40
32865;DHT22;19219;44.500;11.188;2022-12-18T09:04:55;21.30;79.00
32865;DHT22;19219;44.500;11.188;2022-12-18T09:07:21;21.70;76.10
32865;DHT22;19219;44.500;11.188;2022-12-18T09:09:47;21.70;73.50
32865;DHT22;19219;44.500;11.188;2022-12-18T09:12:12;22.20;72.60
32865;DHT22;19219;44.500;11.188;2022-12-18T09:14:38;22.10;71.10
32865;DHT22;19219;44.500;11.188;2022-12-18T09:17:04;21.70;70.00
32865;DHT22;19219;44.500;11.188;2022-12-18T09:19:29;21.30;66.90
32865;DHT22;19219;44.500;11.188;2022-12-18T09:21:55;21.80;66.80
32865;DHT22;19219;44.500;11.188;2022-12-18T09:24:21;22.10;64.80
32865;DHT22;19219;44.500;11.188;2022-12-18T09:26:48;22.50;63.50
32865;DHT22;19219;44.500;11.188;2022-12-18T09:29:14;22.00;62.00
32865;DHT22;19219;44.500;11.188;2022-12-18T09:31:40;20.50;60.90
32865;DHT22;19219;44.500;11.188;2022-12-18T09:34:06;19.20;62.70
32865;DHT22;19219;44.500;11.188;2022-12-18T09:36:32;18.00;67.10
32865;DHT22;19219;44.500;11.188;2022-12-18T09:38:58;17.50;69.70
32865;DHT22;19219;44.500;11.188;2022-12-18T09:41:46;17.50;69.10
32865;DHT22;19219;44.500;11.188;2022-12-18T09:49:26;20.30;63.50
32865;DHT22;19219;44.500;11.188;2022-12-18T09:51:58;21.40;62.30
32865;DHT22;19219;44.500;11.188;2022-12-18T09:54:41;22.30;61.20
32865;DHT22;19219;44.500;11.188;2022-12-18T09:57:15;22.80;59.90
32865;DHT22;19219;44.500;11.188;2022-12-18T09:59:42;22.80;56.80
32865;DHT22;19219;44.500;11.188;2022-12-18T10:02:20;22.70;55.20
32865;DHT22;19219;44.500;11.188;2022-12-18T10:07:34;23.20;56.20
32865;DHT22;19219;44.500;11.188;2022-12-18T10:10:31;23.50;54.40
32865;DHT22;19219;44.500;11.188;2022-12-18T10:16:11;23.20;53.90
32865;DHT22;19219;44.500;11.188;2022-12-18T10:19:00;23.40;53.80
32865;DHT22;19219;44.500;11.188;2022-12-18T10:26:54;23.60;52.00
32865;DHT22;19219;44.500;11.188;2022-12-18T10:29:21;23.50;51.50
32865;DHT22;19219;44.500;11.188;2022-12-18T10:31:47;23.70;51.20
32865;DHT22;19219;44.500;11.188;2022-12-18T10:34:13;23.70;51.70
32865;DHT22;19219;44.500;11.188;2022-12-18T10:36:39;23.90;51.00
32865;DHT22;19219;44.500;11.188;2022-12-18T10:39:16;24.20;51.80
32865;DHT22;19219;44.500;11.188;2022-12-18T10:41:42;24.00;50.90
32865;DHT22;19219;44.500;11.188;2022-12-18T10:44:19;23.90;51.70
32865;DHT22;19219;44.500;11.188;2022-12-18T10:46:48;24.20;51.10
32865;DHT22;19219;44.500;11.188;2022-12-18T10:49:28;24.20;51.20
32865;DHT22;19219;44.500;11.188;2022-12-18T10:52:16;23.40;51.80
32865;DHT22;19219;44.500;11.188;2022-12-18T10:55:03;23.70;50.10
32865;DHT22;19219;44.500;11.188;2022-12-18T10:57:36;23.60;50.60
32865;DHT22;19219;44.500;11.188;2022-12-18T11:00:25;23.10;49.80
32865;DHT22;19219;44.500;11.188;2022-12-18T11:02:51;22.40;51.80
32865;DHT22;19219;44.500;11.188;2022-12-18T11:05:35;22.10;52.70
32865;DHT22;19219;44.500;11.188;2022-12-18T11:08:02;21.90;53.20
32865;DHT22;19219;44.500;11.188;2022-12-18T11:10:32;21.60;52.90
32865;DHT22;19219;44.500;11.188;2022-12-18T11:13:18;21.20;54.60
32865;DHT22;19219;44.500;11.188;2022-12-18T11:15:44;21.00;54.30
32865;DHT22;19219;44.500;11.188;2022-12-18T11:18:33;20.90;55.30
32865;DHT22;19219;44.500;11.188;2022-12-18T11:21:11;19.90;54.70
32865;DHT22;19219;44.500;11.188;2022-12-18T11:26:11;17.80;58.80
32865;DHT22;19219;44.500;11.188;2022-12-18T11:28:40;16.90;60.60
32865;DHT22;19219;44.500;11.188;2022-12-18T11:31:24;16.00;63.00
32865;DHT22;19219;44.500;11.188;2022-12-18T11:36:28;14.60;68.10
32865;DHT22;19219;44.500;11.188;2022-12-18T11:38:56;14.20;71.50
32865;DHT22;19219;44.500;11.188;2022-12-18T11:41:49;14.00;74.60
32865;DHT22;19219;44.500;11.188;2022-12-18T11:44:55;14.00;78.30
32865;DHT22;19219;44.500;11.188;2022-12-18T11:50:52;13.70;83.80
32865;DHT22;19219;44.500;11.188;2022-12-18T11:53:19;13.40;84.90
32865;DHT22;19219;44.500;11.188;2022-12-18T11:58:57;13.20;90.10
32865;DHT22;19219;44.500;11.188;2022-12-18T12:15:12;12.60;93.40
32865;DHT22;19219;44.500;11.188;2022-12-18T12:17:51;12.60;94.30
32865;DHT22;19219;44.500;11.188;2022-12-18T12:20:23;12.60;95.80
32865;DHT22;19219;44.500;11.188;2022-12-18T12:25:33;12.70;96.40
32865;DHT22;19219;44.500;11.188;2022-12-18T12:33:34;12.50;97.40
32865;DHT22;19219;44.500;11.188;2022-12-18T12:38:55;12.30;99.20
32865;DHT22;19219;44.500;11.188;2022-12-18T12:41:25;12.30;99.40
32865;DHT22;19219;44.500;11.188;2022-12-18T12:44:27;12.30;99.90
32865;DHT22;19219;44.500;11.188;2022-12-18T12:47:00;12.10;99.90
32865;DHT22;19219;44.500;11.188;2022-12-18T12:49:31;12.00;99.90
32865;DHT22;19219;44.500;11.188;2022-12-18T12:54:26;11.90;99.90
32865;DHT22;19219;44.500;11.188;2022-12-18T13:00:16;12.10;99.90
32865;DHT22;19219;44.500;11.188;2022-12-18T13:02:56;12.10;99.90
32865;DHT22;19219;44.500;11.188;2022-12-18T13:05:45;12.10;99.90
32865;DHT22;19219;44.500;11.188;2022-12-18T13:08:23;12.10;99.90
32865;DHT22;19219;44.500;11.188;2022-12-18T13:10:49;11.90;99.90
32865;DHT22;19219;44.500;11.188;2022-12-18T13:13:55;11.90;99.90
32865;DHT22;19219;44.500;11.188;2022-12-18T13:16:22;11.80;99.90
32865;DHT22;19219;44.500;11.188;2022-12-18T13:18:54;11.90;99.90
32865;DHT22;19219;44.500;11.188;2022-12-18T13:21:28;12.00;99.90
32865;DHT22;19219;44.500;11.188;2022-12-18T13:23:55;12.00;99.90
32865;DHT22;19219;44.500;11.188;2022-12-18T13:28:56;11.90;99.90
32865;DHT22;19219;44.500;11.188;2022-12-18T13:34:21;11.80;99.90
32865;DHT22;19219;44.500;11.188;2022-12-18T13:36:47;11.80;99.90
32865;DHT22;19219;44.500;11.188;2022-12-18T13:41:43;11.30;99.90
32865;DHT22;19219;44.500;11.188;2022-12-18T13:46:53;11.10;99.90
32865;DHT22;19219;44.500;11.188;2022-12-18T13:49:38;11.00;99.90
32865;DHT22;19219;44.500;11.188;2022-12-18T13:52:34;10.80;99.90
32865;DHT22;19219;44.500;11.188;2022-12-18T13:55:04;10.80;99.90
32865;DHT22;19219;44.500;11.188;2022-12-18T13:57:36;10.60;99.90
32865;DHT22;19219;44.500;11.188;2022-12-18T14:02:47;10.80;99.90
32865;DHT22;19219;44.500;11.188;2022-12-18T14:07:49;11.00;99.90
32865;DHT22;19219;44.500;11.188;2022-12-18T14:10:16;11.00;99.90
32865;DHT22;19219;44.500;11.188;2022-12-18T14:12:46;11.00;99.90
32865;DHT22;19219;44.500;11.188;2022-12-18T14:20:44;10.70;99.90
32865;DHT22;19219;44.500;11.188;2022-12-18T14:23:33;10.70;99.90
32865;DHT22;19219;44.500;11.188;2022-12-18T14:26:01;10.70;99.90
32865;DHT22;19219;44.500;11.188;2022-12-18T14:28:28;10.50;99.90
32865;DHT22;19219;44.500;11.188;2022-12-18T14:30:55;10.50;99.90
32865;DHT22;19219;44.500;11.188;2022-12-18T14:33:24;10.40;99.90
32865;DHT22;19219;44.500;11.188;2022-12-18T14:36:02;10.40;99.90
32865;DHT22;19219;44.500;11.188;2022-12-18T14:41:06;10.30;99.90
32865;DHT22;19219;44.500;11.188;2022-12-18T14:43:34;10.20;99.90
32865;DHT22;19219;44.500;11.188;2022-12-18T14:46:01;10.10;99.90
32865;DHT22;19219;44.500;11.188;2022-12-18T14:48:41;10.10;99.90
32865;DHT22;19219;44.500;11.188;2022-12-18T14:51:20;10.10;99.90
32865;DHT22;19219;44.500;11.188;2022-12-18T14:53:55;10.00;99.90
32865;DHT22;19219;44.500;11.188;2022-12-18T14:56:22;9.90;99.90
32865;DHT22;19219;44.500;11.188;2022-12-18T14:58:51;9.90;99.90
32865;DHT22;19219;44.500;11.188;2022-12-18T15:04:01;9.80;99.90
32865;DHT22;19219;44.500;11.188;2022-12-18T15:06:31;9.70;99.90
32865;DHT22;19219;44.500;11.188;2022-12-18T15:09:00;9.60;99.90
32865;DHT22;19219;44.500;11.188;2022-12-18T15:11:27;9.60;99.90
32865;DHT22;19219;44.500;11.188;2022-12-18T15:13:53;9.50;99.90
32865;DHT22;19219;44.500;11.188;2022-12-18T15:16:19;9.30;99.90
32865;DHT22;19219;44.500;11.188;2022-12-18T15:18:45;9.10;99.90
32865;DHT22;19219;44.500;11.188;2022-12-18T15:21:18;8.80;99.90
32865;DHT22;19219;44.500;11.188;2022-12-18T15:26:11;8.60;99.90
32865;DHT22;19219;44.500;11.188;2022-12-18T15:31:22;8.30;99.90
32865;DHT22;19219;44.500;11.188;2022-12-18T15:36:19;8.00;99.90
32865;DHT22;19219;44.500;11.188;2022-12-18T15:38:49;7.90;99.90
32865;DHT22;19219;44.500;11.188;2022-12-18T15:41:18;7.80;99.90
32865;DHT22;19219;44.500;11.188;2022-12-18T15:43:45;7.70;99.90
32865;DHT22;19219;44.500;11.188;2022-12-18T15:46:14;7.70;99.90
32865;DHT22;19219;44.500;11.188;2022-12-18T15:48:44;7.60;99.90
32865;DHT22;19219;44.500;11.188;2022-12-18T15:51:34;7.40;99.90
32865;DHT22;19219;44.500;11.188;2022-12-18T15:54:03;7.30;99.90
32865;DHT22;19219;44.500;11.188;2022-12-18T15:56:29;7.20;99.90
32865;DHT22;19219;44.500;11.188;2022-12-18T15:59:18;7.00;99.90
32865;DHT22;19219;44.500;11.188;2022-12-18T16:01:49;6.90;99.90
32865;DHT22;19219;44.500;11.188;2022-12-18T16:04:17;6.80;99.90
32865;DHT22;19219;44.500;11.188;2022-12-18T16:06:45;6.70;99.90
32865;DHT22;19219;44.500;11.188;2022-12-18T16:09:11;6.70;99.90
32865;DHT22;19219;44.500;11.188;2022-12-18T16:11:37;6.60;99.90
32865;DHT22;19219;44.500;11.188;2022-12-18T16:14:23;6.50;99.90
32865;DHT22;19219;44.500;11.188;2022-12-18T16:16:53;6.30;99.90
32865;DHT22;19219;44.500;11.188;2022-12-18T16:19:20;6.30;99.90
32865;DHT22;19219;44.500;11.188;2022-12-18T16:21:47;6.20;99.90
32865;DHT22;19219;44.500;11.188;2022-12-18T16:24:18;6.10;99.90
32865;DHT22;19219;44.500;11.188;2022-12-18T16:26:46;6.00;99.90
32865;DHT22;19219;44.500;11.188;2022-12-18T16:29:11;6.00;99.90
32865;DHT22;19219;44.500;11.188;2022-12-18T16:31:37;5.90;99.90
32865;DHT22;19219;44.500;11.188;2022-12-18T16:34:35;5.80;99.90
32865;DHT22;19219;44.500;11.188;2022-12-18T16:37:06;5.80;99.90
32865;DHT22;19219;44.500;11.188;2022-12-18T16:39:33;5.60;99.90
32865;DHT22;19219;44.500;11.188;2022-12-18T16:42:00;5.60;99.90
32865;DHT22;19219;44.500;11.188;2022-12-18T16:44:26;5.40;99.90
32865;DHT22;19219;44.500;11.188;2022-12-18T16:46:53;5.40;99.90
32865;DHT22;19219;44.500;11.188;2022-12-18T16:49:19;5.40;99.90
32865;DHT22;19219;44.500;11.188;2022-12-18T16:51:48;5.40;99.90
32865;DHT22;19219;44.500;11.188;2022-12-18T16:54:13;5.40;99.90
32865;DHT22;19219;44.500;11.188;2022-12-18T16:56:40;5.30;99.90
32865;DHT22;19219;44.500;11.188;2022-12-18T16:59:09;5.30;99.90
32865;DHT22;19219;44.500;11.188;2022-12-18T17:01:35;5.30;99.90
32865;DHT22;19219;44.500;11.188;2022-12-18T17:04:03;5.30;99.90
32865;DHT22;19219;44.500;11.188;2022-12-18T17:06:32;5.30;99.90
32865;DHT22;19219;44.500;11.188;2022-12-18T17:08:59;5.20;99.90
32865;DHT22;19219;44.500;11.188;2022-12-18T17:11:27;5.20;99.90
32865;DHT22;19219;44.500;11.188;2022-12-18T17:13:53;5.10;99.90
32865;DHT22;19219;44.500;11.188;2022-12-18T17:16:19;5.00;99.90
32865;DHT22;19219;44.500;11.188;2022-12-18T17:18:45;4.90;99.90
32865;DHT22;19219;44.500;11.188;2022-12-18T17:21:12;4.90;99.90
32865;DHT22;19219;44.500;11.188;2022-12-18T17:23:42;4.90;99.90
32865;DHT22;19219;44.500;11.188;2022-12-18T17:26:09;4.90;99.90
32865;DHT22;19219;44.500;11.188;2022-12-18T17:28:36;4.90;99.90
32865;DHT22;19219;44.500;11.188;2022-12-18T17:31:12;4.80;99.90
32865;DHT22;19219;44.500;11.188;2022-12-18T17:33:39;4.80;99.90
32865;DHT22;19219;44.500;11.188;2022-12-18T17:36:05;4.80;99.90
32865;DHT22;19219;44.500;11.188;2022-12-18T17:38:31;4.80;99.90
32865;DHT22;19219;44.500;11.188;2022-12-18T17:41:05;4.70;99.90
32865;DHT22;19219;44.500;11.188;2022-12-18T17:43:30;4.70;99.90